createdAt,value
2022-09-11T00:01:39.841Z,98672.25
2022-09-11T00:04:07.233Z,98671.16
2022-09-11T00:06:34.600Z,98673.38
2022-09-11T00:09:05.220Z,98668.97
2022-09-11T00:11:40.693Z,98670.88
2022-09-11T00:14:10.646Z,98669.25
2022-09-11T00:16:42.543Z,98669.56
2022-09-11T00:19:18.969Z,98673.41
2022-09-11T00:21:47.659Z,98664.59
2022-09-11T00:24:15.028Z,98653.88
2022-09-11T00:26:42.820Z,98650.56
2022-09-11T00:29:10.494Z,98653.41
2022-09-11T00:31:37.909Z,98652.59
2022-09-11T00:34:09.490Z,98652.28
2022-09-11T00:36:39.253Z,98648.44
2022-09-11T00:39:06.892Z,98652.31
2022-09-11T00:41:42.379Z,98652.88
2022-09-11T00:44:18.933Z,98656.16
2022-09-11T00:46:56.703Z,98656.16
2022-09-11T00:49:41.416Z,98663.63
2022-09-11T00:52:28.152Z,98658.94
2022-09-11T00:55:00.107Z,98663.06
2022-09-11T00:57:35.004Z,98668.34
2022-09-11T01:00:04.587Z,98669.19
2022-09-11T01:02:36.786Z,98660.91
2022-09-11T01:05:06.211Z,98660.09
2022-09-11T01:07:36.372Z,98660.34
2022-09-11T01:10:07.993Z,98658.56
2022-09-11T01:13:10.786Z,98660.47
2022-09-11T01:16:22.521Z,98653.31
2022-09-11T01:19:27.006Z,98653.56
2022-09-11T01:22:06.317Z,98646.38
2022-09-11T01:25:09.266Z,98649.97
2022-09-11T01:27:50.381Z,98642.78
2022-09-11T01:30:26.607Z,98651.06
2022-09-11T01:33:14.823Z,98649.72
2022-09-11T01:36:03.245Z,98646.69
2022-09-11T01:38:48.603Z,98651.06
2022-09-11T01:41:40.805Z,98649.44
2022-09-11T01:44:26.558Z,98653.81
2022-09-11T01:46:54.371Z,98654.13
2022-09-11T01:49:48.261Z,98652.22
2022-09-11T01:52:28.126Z,98666.00
2022-09-11T01:55:01.936Z,98656.59
2022-09-11T01:57:52.565Z,98662.66
2022-09-11T02:00:20.033Z,98659.06
2022-09-11T02:02:57.723Z,98656.03
2022-09-11T02:05:33.775Z,98657.13
2022-09-11T02:08:11.581Z,98648.84
2022-09-11T02:10:52.070Z,98662.06
2022-09-11T02:13:37.278Z,98649.91
2022-09-11T02:16:41.239Z,98649.63
2022-09-11T02:19:14.171Z,98644.13
2022-09-11T02:21:41.503Z,98644.94
2022-09-11T02:24:09.686Z,98645.75
2022-09-11T02:27:01.615Z,98641.06
2022-09-11T02:29:29.202Z,98641.06
2022-09-11T02:31:56.478Z,98641.88
2022-09-11T02:34:32.218Z,98636.13
2022-09-11T02:37:24.997Z,98636.03
2022-09-11T02:40:50.899Z,98640.69
2022-09-11T02:43:49.968Z,98626.03
2022-09-11T02:47:05.606Z,98634.25
2022-09-11T02:49:47.486Z,98630.91
2022-09-11T02:52:31.854Z,98635.03
2022-09-11T02:55:17.343Z,98639.44
2022-09-11T02:58:36.672Z,98628.97
2022-09-11T03:01:04.907Z,98630.09
2022-09-11T03:03:46.738Z,98632.03
2022-09-11T03:06:28.191Z,98633.97
2022-09-11T03:08:55.852Z,98625.47
2022-09-11T03:11:23.217Z,98637.28
2022-09-11T03:13:50.457Z,98632.06
2022-09-11T03:16:17.856Z,98637.81
2022-09-11T03:18:45.140Z,98640.31
2022-09-11T03:21:12.346Z,98623.22
2022-09-11T03:23:39.845Z,98621.00
2022-09-11T03:26:07.350Z,98634.19
2022-09-11T03:28:34.717Z,98624.00
2022-09-11T03:31:02.065Z,98627.84
2022-09-11T03:33:29.497Z,98629.19
2022-09-11T03:35:57.361Z,98631.94
2022-09-11T03:38:24.885Z,98626.97
2022-09-11T03:40:52.100Z,98626.44
2022-09-11T03:43:19.519Z,98638.84
2022-09-11T03:45:50.270Z,98646.53
2022-09-11T03:48:18.500Z,98647.34
2022-09-11T03:50:47.789Z,98645.13
2022-09-11T03:53:15.860Z,98638.47
2022-09-11T03:55:45.302Z,98639.84
2022-09-11T03:58:13.167Z,98638.72
2022-09-11T04:00:44.310Z,98638.44
2022-09-11T04:03:12.963Z,98637.59
2022-09-11T04:05:40.445Z,98637.59
2022-09-11T04:08:07.760Z,98634.84
2022-09-11T04:10:35.490Z,98626.28
2022-09-11T04:13:02.772Z,98631.03
2022-09-11T04:15:31.130Z,98635.38
2022-09-11T04:18:02.105Z,98643.13
2022-09-11T04:20:32.145Z,98642.28
2022-09-11T04:22:59.494Z,98645.28
2022-09-11T04:25:26.774Z,98646.13
2022-09-11T04:27:53.963Z,98643.91
2022-09-11T04:30:22.450Z,98642.78
2022-09-11T04:32:50.439Z,98635.31
2022-09-11T04:35:19.197Z,98645.22
2022-09-11T04:37:46.388Z,98648.81
2022-09-11T04:40:13.710Z,98645.22
2022-09-11T04:42:41.018Z,98635.31
2022-09-11T04:45:08.691Z,98638.59
2022-09-11T04:47:36.007Z,98651.28
2022-09-11T04:50:03.406Z,98644.94
2022-09-11T04:52:31.158Z,98638.59
2022-09-11T04:54:58.754Z,98645.78
2022-09-11T04:57:26.250Z,98636.69
2022-09-11T04:59:54.226Z,98647.16
2022-09-11T05:02:21.999Z,98647.72
2022-09-11T05:04:49.229Z,98650.19
2022-09-11T05:07:16.581Z,98650.69
2022-09-11T05:09:43.801Z,98647.13
2022-09-11T05:12:11.014Z,98658.69
2022-09-11T05:14:38.198Z,98646.00
2022-09-11T05:17:05.538Z,98652.59
2022-09-11T05:19:32.741Z,98658.38
2022-09-11T05:22:00.042Z,98657.00
2022-09-11T05:24:27.297Z,98653.69
2022-09-11T05:26:54.528Z,98658.38
2022-09-11T05:29:23.124Z,98660.03
2022-09-11T05:31:50.429Z,98665.56
2022-09-11T05:34:17.793Z,98669.13
2022-09-11T05:36:46.015Z,98676.31
2022-09-11T05:39:13.254Z,98665.03
2022-09-11T05:41:40.747Z,98666.66
2022-09-11T05:44:08.040Z,98670.25
2022-09-11T05:46:35.252Z,98666.38
2022-09-11T05:49:02.629Z,98667.22
2022-09-11T05:51:29.873Z,98670.19
2022-09-11T05:53:58.251Z,98665.50
2022-09-11T05:56:28.271Z,98668.78
2022-09-11T05:58:55.894Z,98662.75
2022-09-11T06:01:26.776Z,98664.06
2022-09-11T06:03:54.744Z,98674.84
2022-09-11T06:06:23.680Z,98682.28
2022-09-11T06:08:53.080Z,98671.84
2022-09-11T06:11:22.237Z,98673.47
2022-09-11T06:13:50.211Z,98675.13
2022-09-11T06:16:24.318Z,98679.81
2022-09-11T06:18:53.037Z,98678.97
2022-09-11T06:21:23.990Z,98688.91
2022-09-11T06:23:53.400Z,98683.41
2022-09-11T06:26:25.113Z,98680.63
2022-09-11T06:28:54.372Z,98683.13
2022-09-11T06:31:25.610Z,98670.41
2022-09-11T06:33:53.737Z,98680.06
2022-09-11T06:36:26.695Z,98679.75
2022-09-11T06:38:56.897Z,98681.13
2022-09-11T06:41:25.642Z,98683.56
2022-09-11T06:43:53.895Z,98677.47
2022-09-11T06:46:23.956Z,98681.59
2022-09-11T06:48:52.776Z,98680.47
2022-09-11T06:51:23.088Z,98690.09
2022-09-11T06:53:58.168Z,98674.63
2022-09-11T06:56:26.379Z,98679.34
2022-09-11T06:58:53.937Z,98681.53
2022-09-11T07:01:23.295Z,98677.94
2022-09-11T07:03:54.262Z,98679.59
2022-09-11T07:06:26.403Z,98676.84
2022-09-11T07:09:01.689Z,98677.63
2022-09-11T07:11:34.523Z,98676.53
2022-09-11T07:14:05.923Z,98683.41
2022-09-11T07:16:34.015Z,98670.13
2022-09-11T07:19:01.607Z,98669.81
2022-09-11T07:21:29.194Z,98675.81
2022-09-11T07:23:59.390Z,98670.00
2022-09-11T07:26:29.215Z,98683.19
2022-09-11T07:28:57.650Z,98674.63
2022-09-11T07:31:33.090Z,98668.78
2022-09-11T07:34:02.768Z,98671.28
2022-09-11T07:36:34.097Z,98670.69
2022-09-11T07:39:03.561Z,98672.34
2022-09-11T07:41:31.289Z,98680.25
2022-09-11T07:44:00.480Z,98674.38
2022-09-11T07:46:30.010Z,98672.59
2022-09-11T07:48:58.709Z,98683.78
2022-09-11T07:51:26.985Z,98682.88
2022-09-11T07:53:57.950Z,98683.41
2022-09-11T07:56:27.464Z,98674.53
2022-09-11T07:58:56.263Z,98680.25
2022-09-11T08:01:27.905Z,98688.78
2022-09-11T08:04:01.546Z,98686.25
2022-09-11T08:06:31.662Z,98688.69
2022-09-11T08:09:02.857Z,98694.75
2022-09-11T08:11:32.214Z,98698.34
2022-09-11T08:13:59.470Z,98693.41
2022-09-11T08:16:28.532Z,98703.06
2022-09-11T08:18:57.102Z,98697.22
2022-09-11T08:21:26.298Z,98702.44
2022-09-11T08:23:53.601Z,98698.25
2022-09-11T08:26:28.564Z,98696.44
2022-09-11T08:28:58.350Z,98703.84
2022-09-11T08:31:27.774Z,98710.41
2022-09-11T08:33:56.631Z,98707.56
2022-09-11T08:36:24.569Z,98707.72
2022-09-11T08:38:52.734Z,98704.38
2022-09-11T08:41:41.265Z,98705.63
2022-09-11T08:44:42.439Z,98703.28
2022-09-11T08:47:19.200Z,98703.19
2022-09-11T08:50:08.832Z,98703.63
2022-09-11T08:52:37.349Z,98702.41
2022-09-11T08:55:06.577Z,98708.47
2022-09-11T08:57:58.859Z,98694.00
2022-09-11T09:01:07.147Z,98696.38
2022-09-11T09:03:57.313Z,98690.31
2022-09-11T09:07:25.194Z,98697.50
2022-09-11T09:10:29.842Z,98687.47
2022-09-11T09:13:41.571Z,98684.91
2022-09-11T09:16:29.747Z,98673.84
2022-09-11T09:19:26.652Z,98689.31
2022-09-11T09:40:10.439Z,98691.25
2022-09-11T09:43:03.448Z,98686.00
2022-09-11T09:45:45.033Z,98686.81
2022-09-11T09:48:12.978Z,98682.03
2022-09-11T09:50:44.020Z,98679.38
2022-09-11T09:53:23.879Z,98682.25
2022-09-11T09:55:54.489Z,98667.97
2022-09-11T09:58:26.285Z,98672.31
2022-09-11T10:00:53.566Z,98673.72
2022-09-11T10:03:25.830Z,98670.03
2022-09-11T10:05:56.069Z,98665.41
2022-09-11T10:08:36.160Z,98668.84
2022-09-11T10:11:13.430Z,98659.28
2022-09-11T10:13:45.398Z,98669.53
2022-09-11T10:16:28.787Z,98652.97
2022-09-11T10:18:56.838Z,98649.66
2022-09-11T10:21:34.114Z,98647.28
2022-09-11T10:24:23.408Z,98646.53
2022-09-11T10:26:54.260Z,98653.41
2022-09-11T10:29:26.873Z,98649.50
2022-09-11T10:31:57.470Z,98650.09
2022-09-11T10:34:27.480Z,98651.06
2022-09-11T10:37:17.284Z,98650.84
2022-09-11T10:39:48.107Z,98654.25
2022-09-11T10:42:23.179Z,98653.13
2022-09-11T10:44:53.296Z,98650.56
2022-09-11T10:47:31.135Z,98643.88
2022-09-11T10:50:21.135Z,98654.78
2022-09-11T10:53:19.950Z,98649.72
2022-09-11T10:55:58.279Z,98651.19
2022-09-11T10:58:33.732Z,98659.19
2022-09-11T11:01:01.688Z,98652.84
2022-09-11T11:03:30.027Z,98648.91
2022-09-11T11:06:26.916Z,98647.47
2022-09-11T11:09:34.444Z,98648.78
2022-09-11T11:12:32.062Z,98659.25
2022-09-11T11:15:29.925Z,98655.34
2022-09-11T11:18:12.005Z,98650.63
2022-09-11T11:21:13.109Z,98642.84
2022-09-11T11:24:21.960Z,98645.09
2022-09-11T11:27:37.949Z,98638.00
2022-09-11T11:30:40.454Z,98633.28
2022-09-11T11:33:27.190Z,98637.22
2022-09-11T11:36:37.988Z,98642.75
2022-09-11T11:39:38.195Z,98629.25
2022-09-11T11:42:26.936Z,98640.09
2022-09-11T11:45:07.216Z,98633.28
2022-09-11T11:47:44.747Z,98644.25
2022-09-11T11:50:47.597Z,98641.88
2022-09-11T12:03:15.787Z,98634.59
2022-09-11T12:05:43.175Z,98632.19
2022-09-11T12:08:15.949Z,98636.78
2022-09-11T12:11:07.573Z,98638.59
2022-09-11T12:13:47.484Z,98633.75
2022-09-11T12:16:17.389Z,98628.69
2022-09-11T12:19:19.795Z,98634.25
2022-09-11T12:21:52.926Z,98625.72
2022-09-11T12:24:50.682Z,98621.66
2022-09-11T12:27:50.739Z,98627.50
2022-09-11T12:30:17.920Z,98612.44
2022-09-11T12:32:51.166Z,98612.16
2022-09-11T12:35:42.283Z,98610.69
2022-09-11T12:38:09.463Z,98614.97
2022-09-11T12:40:48.536Z,98610.72
2022-09-11T12:43:37.350Z,98623.34
2022-09-11T12:46:10.916Z,98627.06
2022-09-11T12:48:52.542Z,98617.16
2022-09-11T12:51:55.217Z,98607.53
2022-09-11T12:54:40.753Z,98600.53
2022-09-11T12:57:28.090Z,98602.34
2022-09-11T13:00:24.336Z,98600.88
2022-09-11T13:02:58.114Z,98600.25
2022-09-11T13:05:38.518Z,98599.94
2022-09-11T13:08:16.416Z,98598.47
2022-09-11T13:10:43.729Z,98587.69
2022-09-11T13:13:43.493Z,98596.34
2022-09-11T13:16:25.797Z,98598.63
2022-09-11T13:19:03.411Z,98613.94
2022-09-11T13:21:38.429Z,98622.63
2022-09-11T13:24:28.450Z,98614.91
2022-09-11T13:27:03.127Z,98615.84
2022-09-11T13:29:34.036Z,98623.53
2022-09-11T13:32:11.449Z,98624.28
2022-09-11T13:34:41.847Z,98629.47
2022-09-11T13:37:13.333Z,98614.75
2022-09-11T13:39:43.440Z,98624.19
2022-09-11T13:42:18.399Z,98626.28
2022-09-11T13:44:52.304Z,98635.22
2022-09-11T13:47:27.870Z,98630.31
2022-09-11T13:50:02.876Z,98630.94
2022-09-11T13:52:34.769Z,98633.72
2022-09-11T13:55:10.457Z,98629.41
2022-09-11T13:58:02.068Z,98636.38
2022-09-11T14:00:45.279Z,98654.78
2022-09-11T14:03:32.154Z,98658.00
2022-09-11T14:06:04.671Z,98662.53
2022-09-11T14:08:35.278Z,98675.41
2022-09-11T14:11:27.190Z,98674.31
2022-09-11T14:14:11.816Z,98668.16
2022-09-11T14:16:48.966Z,98658.03
2022-09-11T14:19:34.636Z,98664.16
2022-09-11T14:22:15.813Z,98673.03
2022-09-11T14:25:11.864Z,98670.44
2022-09-11T14:27:44.152Z,98658.75
2022-09-11T14:30:25.735Z,98650.94
2022-09-11T14:33:25.061Z,98676.75
2022-09-11T14:35:58.637Z,98704.13
2022-09-11T14:38:26.326Z,98725.66
2022-09-11T14:41:04.258Z,98723.88
2022-09-11T14:43:34.707Z,98713.50
2022-09-11T14:46:03.305Z,98684.81
2022-09-11T14:48:33.826Z,98691.00
2022-09-11T14:51:11.416Z,98685.72
2022-09-11T14:53:43.534Z,98692.91
2022-09-11T14:56:10.965Z,98694.53
2022-09-11T14:58:38.705Z,98690.06
2022-09-11T15:01:06.035Z,98680.47
2022-09-11T15:03:33.314Z,98683.91
2022-09-11T15:06:00.623Z,98686.69
2022-09-11T15:08:27.915Z,98681.63
2022-09-11T15:10:55.158Z,98688.69
2022-09-11T15:13:22.997Z,98692.72
2022-09-11T15:15:50.294Z,98692.97
2022-09-11T15:18:18.914Z,98692.06
2022-09-11T15:20:46.506Z,98686.22
2022-09-11T15:23:13.918Z,98688.16
2022-09-11T15:25:41.150Z,98693.19
2022-09-11T15:28:10.299Z,98692.66
2022-09-11T15:30:38.593Z,98693.25
2022-09-11T15:33:05.901Z,98693.69
2022-09-11T15:35:33.317Z,98698.63
2022-09-11T15:38:00.630Z,98701.91
2022-09-11T15:40:27.920Z,98696.16
2022-09-11T15:42:57.285Z,98707.72
2022-09-11T15:45:24.861Z,98711.84
2022-09-11T15:47:52.141Z,98714.28
2022-09-11T15:50:24.705Z,98714.00
2022-09-11T15:52:53.804Z,98711.78
2022-09-11T15:55:21.122Z,98701.50
2022-09-11T15:57:48.351Z,98702.03
2022-09-11T16:00:16.044Z,98709.44
2022-09-11T16:02:43.400Z,98701.16
2022-09-11T16:05:10.684Z,98700.31
2022-09-11T16:07:37.911Z,98710.25
2022-09-11T16:10:05.653Z,98707.78
2022-09-11T16:12:34.772Z,98704.53
2022-09-11T16:15:02.211Z,98709.50
2022-09-11T16:17:32.439Z,98720.56
2022-09-11T16:20:00.223Z,98709.50
2022-09-11T16:22:31.361Z,98717.00
2022-09-11T16:24:59.447Z,98713.72
2022-09-11T16:27:26.750Z,98704.59
2022-09-11T16:32:41.327Z,98712.06
2022-09-11T16:35:13.345Z,98714.28
2022-09-11T16:37:40.775Z,98706.31
2022-09-11T16:40:09.657Z,98717.38
2022-09-11T16:42:37.018Z,98716.63
2022-09-11T16:45:04.627Z,98714.19
2022-09-11T16:47:32.484Z,98717.75
2022-09-11T16:50:09.774Z,98716.63
2022-09-11T16:52:39.220Z,98710.59
2022-09-11T16:55:09.827Z,98706.47
2022-09-11T16:57:37.334Z,98711.19
2022-09-11T17:00:08.877Z,98714.53
2022-09-11T17:02:37.557Z,98710.13
2022-09-11T17:05:07.787Z,98700.50
2022-09-11T17:07:36.723Z,98699.19
2022-09-11T17:10:04.957Z,98700.78
2022-09-11T17:12:32.469Z,98706.94
2022-09-11T17:14:59.730Z,98716.06
2022-09-11T17:17:27.068Z,98717.50
2022-09-11T17:19:54.481Z,98713.34
2022-09-11T17:22:21.737Z,98706.50
2022-09-11T17:24:49.001Z,98713.97
2022-09-11T17:27:16.317Z,98716.72
2022-09-11T17:29:44.928Z,98719.78
2022-09-11T17:32:31.164Z,98722.25
2022-09-11T17:34:59.279Z,98733.59
2022-09-11T17:37:27.405Z,98731.94
2022-09-11T17:39:55.621Z,98733.09
2022-09-11T17:42:22.945Z,98737.56
2022-09-11T17:44:50.243Z,98746.97
2022-09-11T17:47:17.427Z,98746.44
2022-09-11T17:49:45.370Z,98752.56
2022-09-11T17:52:13.977Z,98757.59
2022-09-11T17:54:41.309Z,98758.97
2022-09-11T17:57:08.709Z,98769.81
2022-09-11T17:59:36.833Z,98771.75
2022-09-11T18:02:04.211Z,98764.34
2022-09-11T18:04:31.819Z,98776.22
2022-09-11T18:06:59.123Z,98771.81
2022-09-11T18:09:26.354Z,98773.22
2022-09-11T18:11:54.650Z,98778.22
2022-09-11T18:14:22.130Z,98774.94
2022-09-11T18:16:49.486Z,98784.34
2022-09-11T18:19:20.446Z,98795.69
2022-09-11T18:21:50.524Z,98790.63
2022-09-11T18:24:20.847Z,98791.94
2022-09-11T18:26:51.791Z,98792.78
2022-09-11T18:29:21.134Z,98789.78
2022-09-11T18:31:53.570Z,98798.56
2022-09-11T18:34:27.865Z,98798.56
2022-09-11T18:36:55.241Z,98792.22
2022-09-11T18:39:23.281Z,98793.31
2022-09-11T18:41:54.467Z,98798.03
2022-09-11T18:44:24.699Z,98796.38
2022-09-11T18:46:56.260Z,98811.56
2022-09-11T18:49:23.865Z,98800.00
2022-09-11T18:51:52.066Z,98810.56
2022-09-11T18:54:21.365Z,98808.63
2022-09-11T18:56:50.587Z,98805.41
2022-09-11T18:59:20.215Z,98808.97
2022-09-11T19:01:48.120Z,98803.47
2022-09-11T19:04:16.930Z,98790.25
2022-09-11T19:06:45.343Z,98792.19
2022-09-11T19:09:13.446Z,98799.88
2022-09-11T19:11:42.103Z,98793.84
2022-09-11T19:14:12.606Z,98801.28
2022-09-11T19:16:41.043Z,98798.31
2022-09-11T19:19:09.050Z,98807.38
2022-09-11T19:21:38.481Z,98807.69
2022-09-11T19:24:07.575Z,98810.72
2022-09-11T19:26:39.045Z,98820.47
2022-09-11T19:29:08.684Z,98815.47
2022-09-11T19:31:39.334Z,98808.09
2022-09-11T19:34:09.605Z,98814.22
2022-09-11T19:36:36.885Z,98819.44
2022-09-11T19:39:05.646Z,98825.22
2022-09-11T19:41:39.776Z,98819.16
2022-09-11T19:44:08.443Z,98817.47
2022-09-11T19:46:38.105Z,98816.66
2022-09-11T19:49:06.799Z,98819.13
2022-09-11T19:51:41.559Z,98824.94
2022-09-11T19:54:11.630Z,98826.03
2022-09-11T19:56:39.796Z,98833.50
2022-09-11T19:59:08.501Z,98828.56
2022-09-11T20:01:36.106Z,98835.72
2022-09-11T20:04:03.823Z,98835.19
2022-09-11T20:06:34.435Z,98825.25
2022-09-11T20:09:29.309Z,98829.44
2022-09-11T20:11:49.916Z,98822.84
2022-09-11T20:14:17.609Z,98812.63
2022-09-11T20:16:44.840Z,98819.81
2022-09-11T20:19:12.279Z,98821.72
2022-09-11T20:21:39.496Z,98815.66
2022-09-11T20:24:07.445Z,98813.50
2022-09-11T20:26:35.679Z,98815.97
2022-09-11T20:29:07.184Z,98817.59
2022-09-11T20:31:46.459Z,98820.06
2022-09-11T20:34:17.647Z,98818.44
2022-09-11T20:36:45.369Z,98806.56
2022-09-11T20:39:15.218Z,98809.31
2022-09-11T20:41:43.049Z,98810.16
2022-09-11T20:44:10.806Z,98811.81
2022-09-11T20:46:38.101Z,98820.34
2022-09-11T20:49:05.813Z,98823.44
2022-09-11T20:51:34.817Z,98812.38
2022-09-11T20:54:02.670Z,98820.16
2022-09-11T20:56:30.268Z,98818.22
2022-09-11T20:58:57.807Z,98815.22
2022-09-11T21:01:35.374Z,98825.50
2022-09-11T21:04:05.089Z,98824.16
2022-09-11T21:06:35.486Z,98826.38
2022-09-11T21:09:11.089Z,98820.56
2022-09-11T21:11:41.020Z,98827.47
2022-09-11T21:14:08.610Z,98831.91
2022-09-11T21:16:36.091Z,98828.31
2022-09-11T21:19:04.964Z,98831.13
2022-09-11T21:21:34.404Z,98839.94
2022-09-11T21:24:04.860Z,98834.66
2022-09-11T21:26:34.236Z,98837.66
2022-09-11T21:29:05.428Z,98835.47
2022-09-11T21:31:34.100Z,98834.66
2022-09-11T21:34:02.237Z,98828.56
2022-09-11T21:36:29.881Z,98834.34
2022-09-11T21:38:57.119Z,98832.94
2022-09-11T21:41:24.403Z,98827.94
2022-09-11T21:43:51.700Z,98829.31
2022-09-11T21:46:18.970Z,98833.44
2022-09-11T21:48:46.321Z,98841.44
2022-09-11T21:51:20.238Z,98844.19
2022-09-11T21:53:49.985Z,98844.19
2022-09-11T21:56:26.502Z,98849.75
2022-09-11T21:58:55.147Z,98846.69
2022-09-11T22:01:25.084Z,98842.53
2022-09-11T22:03:53.126Z,98845.00
2022-09-11T22:06:22.338Z,98845.53
2022-09-11T22:08:49.610Z,98850.78
2022-09-11T22:11:17.043Z,98850.47
2022-09-11T22:13:44.695Z,98855.72
2022-09-11T22:16:16.644Z,98845.50
2022-09-11T22:18:48.218Z,98851.53
2022-09-11T22:21:16.245Z,98852.69
2022-09-11T22:23:43.709Z,98851.53
2022-09-11T22:26:20.513Z,98853.78
2022-09-11T22:28:47.844Z,98856.22
2022-09-11T22:31:22.351Z,98855.13
2022-09-11T22:33:49.807Z,98862.56
2022-09-11T22:36:24.753Z,98861.47
2022-09-11T22:38:52.604Z,98865.66
2022-09-11T22:41:20.219Z,98864.81
2022-09-11T22:43:48.919Z,98855.72
2022-09-11T22:46:17.832Z,98859.56
2022-09-11T22:48:45.087Z,98857.13
2022-09-11T22:51:12.663Z,98854.38
2022-09-11T22:53:40.513Z,98857.13
2022-09-11T22:56:09.490Z,98855.16
2022-09-11T22:58:38.442Z,98851.06
2022-09-11T23:01:09.648Z,98855.75
2022-09-11T23:03:37.681Z,98854.91
2022-09-11T23:06:23.908Z,98856.84
2022-09-11T23:08:52.680Z,98852.47
2022-09-11T23:11:20.887Z,98856.34
2022-09-11T23:13:49.864Z,98850.25
2022-09-11T23:16:21.875Z,98858.84
2022-09-11T23:18:54.329Z,98853.34
2022-09-11T23:21:21.633Z,98858.28
2022-09-11T23:23:54.976Z,98847.28
2022-09-11T23:26:24.297Z,98860.28
2022-09-11T23:28:53.448Z,98850.13
2022-09-11T23:31:32.920Z,98854.81
2022-09-11T23:34:03.804Z,98855.34
2022-09-11T23:36:32.146Z,98858.69
2022-09-11T23:38:59.599Z,98857.03
2022-09-11T23:41:27.705Z,98853.19
2022-09-11T23:43:55.802Z,98845.50
2022-09-11T23:46:23.015Z,98844.13
2022-09-11T23:48:50.321Z,98851.31
2022-09-11T23:51:17.651Z,98852.44
2022-09-11T23:53:45.585Z,98846.38
2022-09-11T23:56:14.589Z,98840.59
2022-09-11T23:58:42.956Z,98840.59
